createdAt,value
2022-12-20T00:00:15.179Z,101394.69
2022-12-20T00:02:39.186Z,101394.81
2022-12-20T00:05:04.528Z,101388.28
2022-12-20T00:07:28.197Z,101391.91
2022-12-20T00:09:51.797Z,101398.78
2022-12-20T00:12:15.392Z,101401.75
2022-12-20T00:14:39.030Z,101397.72
2022-12-20T00:17:02.726Z,101393.91
2022-12-20T00:19:26.307Z,101389.69
2022-12-20T00:21:51.362Z,101398.06
2022-12-20T00:24:18.140Z,101386.94
2022-12-20T00:26:44.358Z,101384.25
2022-12-20T00:29:08.986Z,101378.97
2022-12-20T00:31:33.480Z,101374.34
2022-12-20T00:33:58.388Z,101364.31
2022-12-20T00:36:23.431Z,101367.69
2022-12-20T00:38:50.884Z,101379.69
2022-12-20T00:41:17.880Z,101379.06
2022-12-20T00:43:42.248Z,101376.16
2022-12-20T00:46:07.770Z,101374.56
2022-12-20T00:48:32.811Z,101378.84
2022-12-20T00:51:00.512Z,101368.69
2022-12-20T00:53:26.563Z,101367.91
2022-12-20T00:55:51.862Z,101370.69
2022-12-20T00:58:15.719Z,101375.22
2022-12-20T01:00:40.513Z,101375.38
2022-12-20T01:03:04.920Z,101372.47
2022-12-20T01:05:28.767Z,101378.34
2022-12-20T01:07:52.391Z,101376.50
2022-12-20T01:10:16.671Z,101379.34
2022-12-20T01:12:41.808Z,101375.69
2022-12-20T01:15:07.026Z,101375.22
2022-12-20T01:17:30.744Z,101371.53
2022-12-20T01:19:54.368Z,101363.69
2022-12-20T01:22:18.010Z,101356.00
2022-12-20T01:24:41.864Z,101372.50
2022-12-20T01:27:05.644Z,101364.25
2022-12-20T01:29:30.709Z,101361.22
2022-12-20T01:31:54.940Z,101370.59
2022-12-20T01:34:18.986Z,101366.72
2022-12-20T01:36:42.812Z,101358.47
2022-12-20T01:39:09.612Z,101355.00
2022-12-20T01:41:34.721Z,101340.16
2022-12-20T01:44:01.303Z,101339.56
2022-12-20T01:46:28.391Z,101341.28
2022-12-20T01:48:57.736Z,101342.56
2022-12-20T01:51:22.705Z,101343.47
2022-12-20T01:53:46.754Z,101346.44
2022-12-20T01:56:11.773Z,101352.50
2022-12-20T01:58:36.595Z,101337.78
2022-12-20T02:01:00.579Z,101345.34
2022-12-20T02:03:25.876Z,101341.28
2022-12-20T02:05:49.729Z,101347.66
2022-12-20T02:08:16.293Z,101343.00
2022-12-20T02:10:58.700Z,101351.50
2022-12-20T02:13:34.312Z,101356.13
2022-12-20T02:16:00.344Z,101350.81
2022-12-20T02:18:31.010Z,101343.84
2022-12-20T02:21:30.091Z,101349.53
2022-12-20T02:24:56.078Z,101356.84
2022-12-20T02:27:48.781Z,101357.22
2022-12-20T02:30:18.659Z,101351.81
2022-12-20T02:32:50.589Z,101344.53
2022-12-20T02:35:19.717Z,101349.91
2022-12-20T02:37:54.386Z,101347.84
2022-12-20T02:40:24.789Z,101343.25
2022-12-20T02:42:50.027Z,101335.31
2022-12-20T02:45:17.963Z,101319.47
2022-12-20T02:47:49.811Z,101317.50
2022-12-20T02:50:14.670Z,101310.66
2022-12-20T02:52:41.032Z,101310.28
2022-12-20T02:55:07.476Z,101306.03
2022-12-20T02:57:40.608Z,101306.03
2022-12-20T03:00:11.021Z,101302.50
2022-12-20T03:02:50.920Z,101292.41
2022-12-20T03:05:14.794Z,101283.81
2022-12-20T03:07:38.469Z,101285.06
2022-12-20T03:10:02.227Z,101282.72
2022-12-20T03:12:25.876Z,101287.78
2022-12-20T03:14:49.628Z,101290.06
2022-12-20T03:17:13.319Z,101282.16
2022-12-20T03:19:38.505Z,101291.38
2022-12-20T03:22:02.950Z,101303.69
2022-12-20T03:24:28.243Z,101301.09
2022-12-20T03:26:52.347Z,101303.22
2022-12-20T03:29:18.994Z,101310.50
2022-12-20T03:31:43.264Z,101305.75
2022-12-20T03:34:08.439Z,101319.84
2022-12-20T03:36:33.726Z,101304.25
2022-12-20T03:39:01.085Z,101294.53
2022-12-20T03:41:28.858Z,101297.13
2022-12-20T03:43:52.629Z,101291.84
2022-12-20T03:46:18.538Z,101302.00
2022-12-20T03:48:42.372Z,101296.47
2022-12-20T03:51:07.105Z,101297.59
2022-12-20T03:53:33.325Z,101289.44
2022-12-20T03:55:56.995Z,101286.38
2022-12-20T03:58:21.231Z,101288.09
2022-12-20T04:00:45.044Z,101295.00
2022-12-20T04:03:35.742Z,101307.06
2022-12-20T04:05:59.594Z,101316.94
2022-12-20T04:08:24.275Z,101307.69
2022-12-20T04:11:07.773Z,101305.44
2022-12-20T04:13:33.482Z,101316.44
2022-12-20T04:16:00.602Z,101309.97
2022-12-20T04:18:27.758Z,101293.19
2022-12-20T04:20:55.231Z,101290.38
2022-12-20T04:23:23.663Z,101297.09
2022-12-20T04:25:47.514Z,101291.06
2022-12-20T04:28:14.754Z,101297.63
2022-12-20T04:30:38.485Z,101296.97
2022-12-20T04:33:04.342Z,101287.06
2022-12-20T04:35:28.265Z,101286.69
2022-12-20T04:37:52.002Z,101288.19
2022-12-20T04:40:15.937Z,101291.69
2022-12-20T04:42:45.665Z,101280.50
2022-12-20T04:45:13.262Z,101281.69
2022-12-20T04:47:36.988Z,101284.72
2022-12-20T04:50:00.822Z,101276.72
2022-12-20T04:52:47.705Z,101274.47
2022-12-20T04:55:12.433Z,101270.00
2022-12-20T04:57:36.134Z,101282.38
2022-12-20T05:00:02.336Z,101280.63
2022-12-20T05:02:27.822Z,101275.97
2022-12-20T05:04:57.657Z,101272.88
2022-12-20T05:07:21.566Z,101274.34
2022-12-20T05:09:49.100Z,101283.75
2022-12-20T05:12:12.767Z,101281.72
2022-12-20T05:14:36.775Z,101287.44
2022-12-20T05:17:00.502Z,101283.09
2022-12-20T05:19:27.050Z,101272.94
2022-12-20T05:22:08.061Z,101268.22
2022-12-20T05:24:51.633Z,101263.16
2022-12-20T05:27:26.019Z,101251.63
2022-12-20T05:29:49.951Z,101253.53
2022-12-20T05:32:13.796Z,101253.72
2022-12-20T05:34:40.880Z,101253.66
2022-12-20T05:37:04.577Z,101251.88
2022-12-20T05:39:30.987Z,101252.50
2022-12-20T05:41:58.043Z,101245.19
2022-12-20T05:44:23.357Z,101249.56
2022-12-20T05:46:50.225Z,101250.41
2022-12-20T05:49:19.771Z,101251.88
2022-12-20T05:51:45.565Z,101264.84
2022-12-20T05:54:17.894Z,101260.63
2022-12-20T05:56:48.513Z,101254.09
2022-12-20T05:59:17.854Z,101235.47
2022-12-20T06:01:43.156Z,101249.88
2022-12-20T06:04:07.164Z,101242.03
2022-12-20T06:06:30.999Z,101250.56
2022-12-20T06:08:57.365Z,101260.50
2022-12-20T06:11:32.920Z,101261.13
2022-12-20T06:14:03.655Z,101269.50
2022-12-20T06:16:27.443Z,101274.22
2022-12-20T06:18:53.456Z,101268.66
2022-12-20T06:21:18.152Z,101269.00
2022-12-20T06:23:42.138Z,101271.25
2022-12-20T06:26:10.549Z,101276.56
2022-12-20T06:28:43.610Z,101272.19
2022-12-20T06:31:07.749Z,101269.66
2022-12-20T06:33:44.267Z,101274.97
2022-12-20T06:36:09.468Z,101264.63
2022-12-20T06:38:33.737Z,101260.22
2022-12-20T06:40:57.404Z,101261.19
2022-12-20T06:43:22.851Z,101267.13
2022-12-20T06:45:46.616Z,101262.69
2022-12-20T06:48:10.483Z,101273.41
2022-12-20T06:50:34.924Z,101266.16
2022-12-20T06:52:58.597Z,101269.28
2022-12-20T06:55:22.325Z,101268.19
2022-12-20T06:57:47.259Z,101275.75
2022-12-20T07:00:15.151Z,101266.97
2022-12-20T07:02:38.841Z,101278.41
2022-12-20T07:05:02.644Z,101287.25
2022-12-20T07:07:26.298Z,101281.31
2022-12-20T07:09:50.049Z,101287.84
2022-12-20T07:12:14.028Z,101289.09
2022-12-20T07:14:37.932Z,101299.25
2022-12-20T07:17:03.644Z,101305.13
2022-12-20T07:19:27.741Z,101310.00
2022-12-20T07:21:51.533Z,101314.34
2022-12-20T07:24:15.204Z,101314.59
2022-12-20T07:26:38.845Z,101322.00
2022-12-20T07:29:02.490Z,101311.44
2022-12-20T07:31:26.169Z,101319.00
2022-12-20T07:33:51.392Z,101326.88
2022-12-20T07:36:17.059Z,101323.63
2022-12-20T07:38:41.053Z,101329.09
2022-12-20T07:41:09.454Z,101330.84
2022-12-20T07:43:33.125Z,101325.50
2022-12-20T07:45:58.050Z,101329.03
2022-12-20T07:48:22.217Z,101320.69
2022-12-20T07:50:47.355Z,101316.41
2022-12-20T07:53:12.210Z,101322.25
2022-12-20T07:55:36.539Z,101308.63
2022-12-20T07:58:06.501Z,101309.69
2022-12-20T08:00:30.364Z,101305.63
2022-12-20T08:03:01.605Z,101303.81
2022-12-20T08:05:26.144Z,101311.06
2022-12-20T08:07:58.441Z,101305.88
2022-12-20T08:10:23.252Z,101305.78
2022-12-20T08:12:48.419Z,101309.22
2022-12-20T08:15:12.651Z,101308.53
2022-12-20T08:17:36.275Z,101309.84
2022-12-20T08:20:00.634Z,101306.22
2022-12-20T08:22:24.460Z,101317.69
2022-12-20T08:24:49.549Z,101308.25
2022-12-20T08:27:13.231Z,101310.38
2022-12-20T08:29:36.928Z,101305.97
2022-12-20T08:32:01.157Z,101307.75
2022-12-20T08:34:24.819Z,101299.59
2022-12-20T08:36:48.479Z,101292.38
2022-12-20T08:39:12.490Z,101291.94
2022-12-20T08:41:37.804Z,101296.44
2022-12-20T08:44:01.557Z,101295.56
2022-12-20T08:46:25.258Z,101285.22
2022-12-20T08:48:49.085Z,101293.84
2022-12-20T08:51:13.379Z,101293.50
2022-12-20T08:53:37.975Z,101285.66
2022-12-20T08:56:07.267Z,101279.88
2022-12-20T08:58:32.360Z,101275.50
2022-12-20T09:00:56.018Z,101282.22
2022-12-20T09:03:19.860Z,101281.94
2022-12-20T09:05:48.112Z,101291.09
2022-12-20T09:08:11.789Z,101282.72
2022-12-20T09:10:35.409Z,101280.66
2022-12-20T09:12:59.095Z,101287.72
2022-12-20T09:15:24.148Z,101281.78
2022-12-20T09:17:48.330Z,101277.16
2022-12-20T09:20:12.472Z,101279.19
2022-12-20T09:22:36.186Z,101273.09
2022-12-20T09:24:59.791Z,101267.91
2022-12-20T09:27:23.600Z,101267.47
2022-12-20T09:29:47.191Z,101265.25
2022-12-20T09:32:13.190Z,101270.38
2022-12-20T09:34:36.777Z,101262.44
2022-12-20T09:37:00.595Z,101271.25
2022-12-20T09:39:24.193Z,101269.81
2022-12-20T09:41:48.736Z,101269.31
2022-12-20T09:44:19.400Z,101268.56
2022-12-20T09:46:44.129Z,101262.97
2022-12-20T09:49:13.069Z,101271.94
2022-12-20T09:52:10.082Z,101267.06
2022-12-20T09:54:43.187Z,101267.25
2022-12-20T09:57:18.034Z,101253.16
2022-12-20T09:59:49.276Z,101251.81
2022-12-20T10:02:44.498Z,101255.44
2022-12-20T10:05:00.332Z,101261.69
2022-12-20T10:07:39.476Z,101259.69
2022-12-20T10:10:28.106Z,101253.75
2022-12-20T10:13:03.504Z,101269.19
2022-12-20T10:15:32.786Z,101263.31
2022-12-20T10:18:20.750Z,101263.50
2022-12-20T10:21:00.959Z,101255.41
2022-12-20T10:23:33.643Z,101240.03
2022-12-20T10:25:59.338Z,101231.72
2022-12-20T10:28:29.386Z,101231.81
2022-12-20T10:30:53.077Z,101228.94
2022-12-20T10:33:22.980Z,101223.22
2022-12-20T10:35:48.364Z,101212.41
2022-12-20T10:38:14.079Z,101203.13
2022-12-20T10:43:25.746Z,101198.34
2022-12-20T10:46:00.373Z,101198.06
2022-12-20T10:48:35.521Z,101191.44
2022-12-20T10:51:04.050Z,101194.28
2022-12-20T10:53:28.783Z,101188.06
2022-12-20T10:55:53.217Z,101189.94
2022-12-20T10:58:22.402Z,101183.72
2022-12-20T11:00:46.891Z,101172.56
2022-12-20T11:03:19.308Z,101159.94
2022-12-20T11:05:56.989Z,101164.28
2022-12-20T11:08:36.620Z,101145.00
2022-12-20T11:11:18.936Z,101140.69
2022-12-20T11:13:42.821Z,101148.22
2022-12-20T11:16:10.464Z,101146.91
2022-12-20T11:18:46.075Z,101140.78
2022-12-20T11:21:28.593Z,101134.22
2022-12-20T11:24:04.066Z,101144.16
2022-12-20T11:26:43.794Z,101126.44
2022-12-20T11:29:28.995Z,101138.03
2022-12-20T11:32:04.963Z,101133.16
2022-12-20T11:34:42.313Z,101123.75
2022-12-20T11:37:20.174Z,101129.63
2022-12-20T11:40:18.347Z,101132.47
2022-12-20T11:43:08.864Z,101117.50
2022-12-20T11:45:41.503Z,101115.91
2022-12-20T11:48:41.951Z,101116.56
2022-12-20T11:51:16.697Z,101108.50
2022-12-20T11:53:47.211Z,101104.88
2022-12-20T11:56:19.459Z,101104.91
2022-12-20T11:58:53.250Z,101088.13
2022-12-20T12:01:21.072Z,101104.66
2022-12-20T12:03:59.417Z,101104.44
2022-12-20T12:06:28.855Z,101104.13
2022-12-20T12:08:56.844Z,101108.72
2022-12-20T12:14:30.147Z,101100.03
2022-12-20T12:17:00.015Z,101099.84
2022-12-20T12:19:28.051Z,101094.72
2022-12-20T12:21:59.459Z,101083.03
2022-12-20T12:24:28.035Z,101083.69
2022-12-20T12:26:53.801Z,101076.38
2022-12-20T12:29:20.632Z,101070.59
2022-12-20T12:31:48.812Z,101077.25
2022-12-20T12:34:32.167Z,101067.81
2022-12-20T12:37:40.488Z,101066.59
2022-12-20T12:40:53.152Z,101059.66
2022-12-20T12:43:49.714Z,101058.47
2022-12-20T12:46:17.481Z,101051.53
2022-12-20T12:48:45.071Z,101049.81
2022-12-20T12:51:09.765Z,101030.50
2022-12-20T12:53:39.252Z,101023.66
2022-12-20T12:56:45.444Z,101037.38
2022-12-20T12:59:42.191Z,101030.63
2022-12-20T13:02:42.576Z,101032.41
2022-12-20T13:05:35.622Z,101031.78
2022-12-20T13:08:00.815Z,101030.75
2022-12-20T13:11:01.735Z,101032.66
2022-12-20T13:13:25.765Z,101019.03
2022-12-20T13:16:12.676Z,101023.44
2022-12-20T13:18:36.457Z,101013.69
2022-12-20T13:21:33.003Z,101021.06
2022-12-20T13:24:39.042Z,101032.94
2022-12-20T13:27:04.242Z,101022.38
2022-12-20T13:29:34.427Z,101028.16
2022-12-20T13:31:59.575Z,101036.06
2022-12-20T13:34:55.797Z,101024.81
2022-12-20T13:37:30.121Z,101026.56
2022-12-20T13:39:54.229Z,101023.44
2022-12-20T13:42:36.041Z,101009.50
2022-12-20T13:45:05.933Z,101009.50
2022-12-20T13:47:47.712Z,101006.91
2022-12-20T13:50:35.679Z,101007.47
2022-12-20T13:53:00.164Z,101014.75
2022-12-20T13:55:39.720Z,101024.09
2022-12-20T13:58:13.099Z,101016.13
2022-12-20T14:00:37.117Z,101019.88
2022-12-20T14:03:03.495Z,101029.44
2022-12-20T14:05:33.459Z,101029.44
2022-12-20T14:08:02.948Z,101016.69
2022-12-20T14:10:30.392Z,101014.34
2022-12-20T14:12:55.327Z,101021.91
2022-12-20T14:15:31.696Z,101004.16
2022-12-20T14:17:55.851Z,100999.22
2022-12-20T14:20:26.229Z,101016.97
2022-12-20T14:23:04.178Z,101007.78
2022-12-20T14:25:35.088Z,101015.59
2022-12-20T14:27:59.763Z,101004.34
2022-12-20T14:30:32.213Z,101012.59
2022-12-20T14:32:56.697Z,101004.91
2022-12-20T14:35:23.089Z,100998.66
2022-12-20T14:37:55.783Z,101005.00
2022-12-20T14:40:21.795Z,100981.03
2022-12-20T14:42:46.051Z,100984.88
2022-12-20T14:45:21.528Z,100992.41
2022-12-20T14:47:52.948Z,100979.78
2022-12-20T14:50:24.402Z,100996.38
2022-12-20T14:52:48.279Z,100984.59
2022-12-20T14:55:19.708Z,100981.81
2022-12-20T14:57:50.443Z,100987.72
2022-12-20T15:00:22.529Z,100981.19
2022-12-20T15:02:52.969Z,100979.91
2022-12-20T15:05:54.699Z,100980.88
2022-12-20T15:08:22.009Z,100975.19
2022-12-20T15:10:55.328Z,100974.66
2022-12-20T15:13:21.774Z,100976.69
2022-12-20T15:15:46.135Z,100973.06
2022-12-20T15:18:14.663Z,100975.16
2022-12-20T15:20:38.337Z,100965.75
2022-12-20T15:23:03.435Z,100968.88
2022-12-20T15:25:27.126Z,100969.75
2022-12-20T15:27:50.968Z,100958.66
2022-12-20T15:30:15.600Z,100955.44
2022-12-20T15:32:54.138Z,100947.72
2022-12-20T15:35:19.107Z,100953.78
2022-12-20T15:37:42.824Z,100951.44
2022-12-20T15:40:13.953Z,100946.78
2022-12-20T15:42:37.758Z,100951.97
2022-12-20T15:45:01.755Z,100951.88
2022-12-20T15:47:26.024Z,100946.63
2022-12-20T15:49:50.647Z,100948.34
2022-12-20T15:52:21.040Z,100938.53
2022-12-20T15:54:44.931Z,100938.94
2022-12-20T15:57:15.558Z,100941.50
2022-12-20T16:02:26.303Z,100931.88
2022-12-20T16:04:50.665Z,100928.00
2022-12-20T16:07:14.692Z,100919.88
2022-12-20T16:09:38.300Z,100926.81
2022-12-20T16:12:02.036Z,100919.03
2022-12-20T16:14:28.549Z,100924.28
2022-12-20T16:16:52.782Z,100914.19
2022-12-20T16:19:16.642Z,100923.63
2022-12-20T16:21:46.667Z,100909.06
2022-12-20T16:24:14.719Z,100919.16
2022-12-20T16:26:38.433Z,100919.88
2022-12-20T16:29:02.111Z,100918.09
2022-12-20T16:31:32.951Z,100910.50
2022-12-20T16:33:57.406Z,100912.00
2022-12-20T16:36:21.142Z,100908.06
2022-12-20T16:38:45.172Z,100912.81
2022-12-20T16:41:15.802Z,100910.94
2022-12-20T16:43:39.452Z,100913.34
2022-12-20T16:46:03.126Z,100910.97
2022-12-20T16:48:28.197Z,100911.63
2022-12-20T16:50:51.888Z,100916.94
2022-12-20T16:53:16.730Z,100912.94
2022-12-20T16:55:40.372Z,100914.09
2022-12-20T16:58:04.082Z,100911.94
2022-12-20T17:00:28.463Z,100907.81
2022-12-20T17:02:52.904Z,100899.69
2022-12-20T17:05:27.505Z,100908.81
2022-12-20T17:07:51.610Z,100904.78
2022-12-20T17:10:15.324Z,100903.06
2022-12-20T17:12:39.104Z,100898.56
2022-12-20T17:15:03.149Z,100895.53
2022-12-20T17:17:26.835Z,100894.53
2022-12-20T17:19:50.725Z,100897.31
2022-12-20T17:22:25.456Z,100894.53
2022-12-20T17:24:49.170Z,100903.53
2022-12-20T17:27:13.193Z,100907.75
2022-12-20T17:29:36.875Z,100899.22
2022-12-20T17:32:00.703Z,100904.84
2022-12-20T17:34:26.553Z,100907.28
2022-12-20T17:36:52.372Z,100918.75
2022-12-20T17:39:18.220Z,100913.66
2022-12-20T17:41:42.686Z,100916.56
2022-12-20T17:44:07.804Z,100921.88
2022-12-20T17:46:31.986Z,100924.69
2022-12-20T17:48:57.310Z,100920.91
2022-12-20T17:51:24.036Z,100916.63
2022-12-20T17:53:49.281Z,100907.81
2022-12-20T17:56:18.250Z,100894.16
2022-12-20T17:58:42.094Z,100893.28
2022-12-20T18:01:05.935Z,100899.44
2022-12-20T18:04:02.303Z,100901.06
2022-12-20T18:06:13.467Z,100907.09
2022-12-20T18:08:37.159Z,100900.03
2022-12-20T18:11:00.786Z,100902.47
2022-12-20T18:13:25.847Z,100916.84
2022-12-20T18:15:49.567Z,100910.97
2022-12-20T18:18:13.154Z,100912.16
2022-12-20T18:20:36.813Z,100902.19
2022-12-20T18:23:00.422Z,100906.66
2022-12-20T18:25:24.168Z,100903.56
2022-12-20T18:27:47.786Z,100900.28
2022-12-20T18:30:14.277Z,100892.38
2022-12-20T18:32:37.891Z,100901.56
2022-12-20T18:35:01.627Z,100894.69
2022-12-20T18:37:25.888Z,100903.19
2022-12-20T18:39:49.866Z,100892.69
2022-12-20T18:42:13.506Z,100891.38
2022-12-20T18:44:37.181Z,100885.03
2022-12-20T18:47:02.907Z,100886.38
2022-12-20T18:49:26.695Z,100886.69
2022-12-20T18:51:50.283Z,100894.81
2022-12-20T18:54:15.213Z,100881.78
2022-12-20T18:56:40.681Z,100888.22
2022-12-20T18:59:11.479Z,100879.16
2022-12-20T19:01:37.603Z,100887.22
2022-12-20T19:04:04.220Z,100884.91
2022-12-20T19:06:28.395Z,100885.69
2022-12-20T19:08:52.174Z,100883.66
2022-12-20T19:11:18.233Z,100888.41
2022-12-20T19:13:43.344Z,100892.09
2022-12-20T19:16:09.561Z,100894.50
2022-12-20T19:18:33.504Z,100891.91
2022-12-20T19:21:07.419Z,100887.75
2022-12-20T19:23:31.099Z,100881.16
2022-12-20T19:25:59.812Z,100889.09
2022-12-20T19:28:26.635Z,100887.94
2022-12-20T19:30:50.297Z,100890.75
2022-12-20T19:33:14.313Z,100883.88
2022-12-20T19:38:22.974Z,100875.09
2022-12-20T19:40:54.312Z,100869.81
2022-12-20T19:43:17.952Z,100875.94
2022-12-20T19:45:41.633Z,100891.56
2022-12-20T19:48:06.389Z,100882.41
2022-12-20T19:50:30.387Z,100882.53
2022-12-20T19:52:54.078Z,100890.06
2022-12-20T19:55:19.071Z,100893.50
2022-12-20T19:57:42.701Z,100892.56
2022-12-20T20:00:10.405Z,100885.03
2022-12-20T20:02:37.034Z,100873.31
2022-12-20T20:05:00.728Z,100871.19
2022-12-20T20:07:24.467Z,100872.56
2022-12-20T20:09:48.095Z,100862.09
2022-12-20T20:12:13.189Z,100872.97
2022-12-20T20:14:36.805Z,100872.47
2022-12-20T20:17:00.520Z,100867.78
2022-12-20T20:19:24.217Z,100865.84
2022-12-20T20:21:49.101Z,100865.25
2022-12-20T20:24:12.974Z,100864.84
2022-12-20T20:26:36.745Z,100864.16
2022-12-20T20:29:02.729Z,100854.78
2022-12-20T20:31:26.555Z,100854.13
2022-12-20T20:33:51.001Z,100866.91
2022-12-20T20:36:17.464Z,100868.81
2022-12-20T20:38:41.242Z,100868.38
2022-12-20T20:41:04.958Z,100870.16
2022-12-20T20:43:29.815Z,100869.50
2022-12-20T20:45:55.199Z,100863.47
2022-12-20T20:48:19.672Z,100854.13
2022-12-20T20:50:43.710Z,100846.38
2022-12-20T20:53:07.745Z,100850.81
2022-12-20T20:55:31.518Z,100862.50
2022-12-20T20:57:55.130Z,100861.22
2022-12-20T21:00:19.569Z,100858.28
2022-12-20T21:02:45.430Z,100849.47
2022-12-20T21:07:54.768Z,100862.13
2022-12-20T21:10:18.724Z,100860.78
2022-12-20T21:12:42.464Z,100859.38
2022-12-20T21:15:24.707Z,100854.72
2022-12-20T21:17:50.151Z,100846.97
2022-12-20T21:20:14.977Z,100844.94
2022-12-20T21:22:38.796Z,100844.19
2022-12-20T21:25:02.387Z,100848.09
2022-12-20T21:27:26.179Z,100850.84
2022-12-20T21:29:49.803Z,100853.00
2022-12-20T21:32:13.510Z,100841.13
2022-12-20T21:34:38.526Z,100846.38
2022-12-20T21:37:03.066Z,100842.94
2022-12-20T21:39:27.063Z,100845.47
2022-12-20T21:41:50.777Z,100845.66
2022-12-20T21:44:14.653Z,100848.72
2022-12-20T21:46:38.830Z,100839.94
2022-12-20T21:49:02.619Z,100834.81
2022-12-20T21:51:29.472Z,100839.25
2022-12-20T21:53:55.080Z,100834.34
2022-12-20T21:56:19.937Z,100829.69
2022-12-20T21:58:44.592Z,100822.22
2022-12-20T22:01:09.229Z,100832.16
2022-12-20T22:03:33.153Z,100823.03
2022-12-20T22:05:57.390Z,100830.53
2022-12-20T22:08:24.411Z,100832.00
2022-12-20T22:10:49.958Z,100835.56
2022-12-20T22:13:14.111Z,100836.69
2022-12-20T22:15:38.176Z,100843.75
2022-12-20T22:18:01.776Z,100840.00
2022-12-20T22:20:25.686Z,100839.94
2022-12-20T22:22:49.279Z,100840.50
2022-12-20T22:25:14.411Z,100836.53
2022-12-20T22:27:38.012Z,100823.78
2022-12-20T22:30:01.740Z,100824.75
2022-12-20T22:32:25.589Z,100817.56
2022-12-20T22:34:49.248Z,100814.34
2022-12-20T22:37:12.990Z,100814.44
2022-12-20T22:39:36.888Z,100800.88
2022-12-20T22:42:01.867Z,100803.00
2022-12-20T22:44:25.617Z,100803.63
2022-12-20T22:46:49.245Z,100801.94
2022-12-20T22:49:18.446Z,100804.47
2022-12-20T22:51:42.087Z,100810.91
2022-12-20T22:54:05.926Z,100797.78
2022-12-20T22:56:29.986Z,100799.13
2022-12-20T22:58:55.221Z,100800.41
2022-12-20T23:01:21.347Z,100801.44
2022-12-20T23:03:45.595Z,100797.09
2022-12-20T23:06:13.149Z,100799.53
2022-12-20T23:08:38.224Z,100795.06
2022-12-20T23:11:20.061Z,100794.25
2022-12-20T23:14:01.520Z,100786.31
2022-12-20T23:16:27.363Z,100786.09
2022-12-20T23:18:51.136Z,100800.28
2022-12-20T23:21:32.088Z,100810.75
2022-12-20T23:23:56.512Z,100803.47
2022-12-20T23:26:20.236Z,100802.75
2022-12-20T23:28:44.546Z,100801.88
2022-12-20T23:31:09.505Z,100803.03
2022-12-20T23:33:34.781Z,100809.44
2022-12-20T23:35:58.692Z,100811.50
2022-12-20T23:38:22.378Z,100810.41
2022-12-20T23:40:46.004Z,100806.25
2022-12-20T23:43:09.748Z,100799.44
2022-12-20T23:45:33.487Z,100799.91
2022-12-20T23:47:57.283Z,100789.53
2022-12-20T23:50:22.329Z,100793.03
2022-12-20T23:52:46.610Z,100781.56
2022-12-20T23:55:11.229Z,100779.56
2022-12-20T23:57:34.990Z,100771.13
2022-12-20T23:59:58.679Z,100773.88
